Accueil
METAR-TAF:

METAR-TAF

Aéroports :

Aéroport George F. L. Charles de Sainte-Lucie

Castries, Sainte-Lucie

latitude: 14-01N, longitude: 061-00W, altitude: 2 m

Observation

Le bulletin a été fait il y a 8 heures et 5 minutes, à 00:00 UTC
Vent 7 kt de est
Température 27°C
Humidité 89%
Pression
Visibilité 10 km ou plus
Quelques nuages à une hauteur de 2200 ft
Nuages fragmentés à une hauteur de 3800 ft

METAR: TLPC 300000Z 10007KT 9999 FEW022 BKN038 27/25 Q101 NOSIG

Heure: 04:05 (08:05 UTC)

Prévision

Le bulletin a été fait il y a 3 heures et 5 minutes, à 05:00 UTC
Prévision valable du 30 à 06 UTC au 01 à 06 UTC
Vent 8 kt de est/nord-est
Visibilité 10 km ou plus
Nuages épars à une hauteur de 2400 ft
Temporairement
du 30 à 06 UTC au 30 à 18 UTC
Nuages fragmentés à une hauteur de 1500 ft
Nuages fragmentés à une hauteur de 3800 ft
averses de pluie

TAF: TLPC 300500Z 3006/0106 07008KT 9999 SCT024 TEMPO 3006/3018 SHRA BKN015 BKN038

Observations et prévisions météorologiques de plus de 4000 aéroports (messages METAR et TAF).

Les stations disponibles sont représentées par des disques jaunes et rouges sur la carte.

Passer la souris dessus pour voir le nom de la station.

Cliquer dessus pour voir les observations et prévisions météorologiques.

Pour changer de carte: cliquez sur les boutons verts avec une croix noire pour zoomer, sur le bouton vert avec un tiret pour effectuer un zoom arrière, ou sur les flèches vertes pour les cartes adjacentes.


METAR-TAF: